Wetterdaten: Woche 31.01.11 - 06.02.11 (KW5)
Datum Zeit Temp. A. Feuchte A. Luftdruck Regen Wind Richtung Taupunkt Windchill Windben
31.01.2011 00:00 -4,0 C 83 % 1024,3 hPa 0,0 l/m 2,2 km/h O -6,4 C -4,0 C 6,4 km/h
31.01.2011 01:00 -3,9 C 84 % 1024,2 hPa 0,0 l/m 1,8 km/h O -6,2 C -3,9 C 4,8 km/h
31.01.2011 02:00 -3,9 C 84 % 1024,1 hPa 0,0 l/m 1,5 km/h O -6,2 C -3,9 C 5,2 km/h
31.01.2011 03:00 -3,9 C 84 % 1024,2 hPa 0,0 l/m 0,9 km/h O -6,2 C -3,9 C 4,8 km/h
31.01.2011 04:00 -3,8 C 83 % 1024,3 hPa 0,0 l/m 0,2 km/h N -6,3 C -3,8 C 2,8 km/h
31.01.2011 05:00 -3,8 C 83 % 1024,6 hPa 0,0 l/m 0,3 km/h N -6,3 C -3,8 C 3,6 km/h
31.01.2011 06:00 -3,8 C 83 % 1024,9 hPa 0,0 l/m 0,6 km/h O -6,3 C -3,8 C 3,6 km/h
31.01.2011 07:00 -3,9 C 83 % 1025,2 hPa 0,0 l/m 1,3 km/h O-SO -6,3 C -3,9 C 7,2 km/h
31.01.2011 08:00 -3,7 C 84 % 1025,6 hPa 0,0 l/m 1,1 km/h S -6,0 C -3,7 C 6,8 km/h
31.01.2011 09:00 -3,5 C 83 % 1026,0 hPa 0,0 l/m 0,7 km/h O-SO -5,9 C -3,5 C 5,6 km/h
31.01.2011 10:00 -3,4 C 83 % 1026,7 hPa 0,0 l/m 1,8 km/h O-SO -5,8 C -3,4 C 8,8 km/h
31.01.2011 11:00 -3,2 C 83 % 1026,8 hPa 0,0 l/m 1,8 km/h O -5,7 C -3,2 C 9,3 km/h
31.01.2011 12:00 -3,0 C 82 % 1026,5 hPa 0,0 l/m 2,3 km/h O-SO -5,7 C -3,0 C 7,6 km/h
31.01.2011 13:00 -2,9 C 82 % 1026,4 hPa 0,0 l/m 2,3 km/h O-SO -5,5 C -2,9 C 9,3 km/h
31.01.2011 14:00 -2,9 C 82 % 1026,1 hPa 0,0 l/m 2,4 km/h O-SO -5,5 C -2,9 C 8,4 km/h
31.01.2011 15:00 -2,8 C 81 % 1026,1 hPa 0,0 l/m 1,5 km/h O -5,6 C -2,8 C 6,0 km/h
31.01.2011 16:00 -2,8 C 81 % 1026,3 hPa 0,0 l/m 1,4 km/h O -5,5 C -2,8 C 6,0 km/h
31.01.2011 17:00 -3,2 C 83 % 1026,5 hPa 0,0 l/m 1,5 km/h O -5,7 C -3,2 C 6,0 km/h
31.01.2011 18:00 -3,3 C 84 % 1026,9 hPa 0,0 l/m 1,9 km/h S -5,7 C -3,3 C 7,2 km/h
31.01.2011 19:00 -3,1 C 82 % 1027,0 hPa 0,0 l/m 1,8 km/h S-SO -5,7 C -3,1 C 7,6 km/h
31.01.2011 20:00 -3,1 C 81 % 1027,2 hPa 0,0 l/m 1,9 km/h O-SO -5,9 C -3,1 C 6,4 km/h
31.01.2011 21:00 -3,9 C 83 % 1027,6 hPa 0,0 l/m 4,5 km/h O-SO -6,4 C -3,9 C 8,9 km/h
31.01.2011 22:00 -4,4 C 85 % 1027,8 hPa 0,0 l/m 3,6 km/h O-SO -6,6 C -4,4 C 7,6 km/h
31.01.2011 23:00 -4,8 C 85 % 1028,1 hPa 0,0 l/m 3,6 km/h O -6,9 C -4,8 C 8,1 km/h
01.02.2011 00:00 -5,0 C 86 % 1028,3 hPa 0,0 l/m 1,5 km/h O -7,0 C -5,0 C 6,4 km/h
01.02.2011 01:00 -5,1 C 86 % 1028,2 hPa 0,0 l/m 0,0 km/h N -7,1 C -5,1 C 1,6 km/h
01.02.2011 02:00 -5,1 C 86 % 1028,1 hPa 0,0 l/m 0,3 km/h N -7,1 C -5,1 C 3,2 km/h
01.02.2011 03:00 -5,2 C 86 % 1027,9 hPa 0,0 l/m 0,6 km/h N -7,2 C -5,2 C 3,2 km/h
01.02.2011 04:00 -5,3 C 86 % 1027,7 hPa 0,0 l/m 0,4 km/h N -7,3 C -5,3 C 2,8 km/h
01.02.2011 05:00 -5,3 C 86 % 1027,6 hPa 0,0 l/m 0,1 km/h N -7,3 C -5,3 C 2,0 km/h
01.02.2011 06:00 -5,2 C 86 % 1027,6 hPa 0,0 l/m 0,1 km/h N -7,2 C -5,2 C 2,0 km/h
01.02.2011 07:00 -5,2 C 86 % 1027,7 hPa 0,0 l/m 0,2 km/h N -7,1 C -5,2 C 2,4 km/h
01.02.2011 08:00 -5,0 C 86 % 1028,3 hPa 0,0 l/m 0,0 km/h N -7,0 C -5,0 C 1,2 km/h
01.02.2011 09:00 -4,8 C 86 % 1028,8 hPa 0,0 l/m 0,1 km/h N -6,7 C -4,8 C 1,6 km/h
01.02.2011 10:00 -4,5 C 86 % 1029,1 hPa 0,0 l/m 0,2 km/h N -6,5 C -4,5 C 3,2 km/h
01.02.2011 11:00 -4,2 C 85 % 1029,0 hPa 0,0 l/m 0,5 km/h N -6,3 C -4,2 C 3,2 km/h
01.02.2011 12:00 -3,8 C 84 % 1028,8 hPa 0,0 l/m 0,4 km/h N -6,1 C -3,8 C 2,8 km/h
01.02.2011 13:00 -3,6 C 83 % 1028,2 hPa 0,0 l/m 0,1 km/h N -6,1 C -3,6 C 1,6 km/h
01.02.2011 14:00 -3,3 C 82 % 1027,9 hPa 0,0 l/m 0,6 km/h O -6,1 C -3,3 C 3,6 km/h
01.02.2011 15:00 -3,5 C 81 % 1027,8 hPa 0,0 l/m 0,6 km/h NO -6,2 C -3,5 C 3,6 km/h
01.02.2011 16:00 -3,6 C 82 % 1027,6 hPa 0,0 l/m 0,6 km/h NO -6,3 C -3,6 C 2,8 km/h
01.02.2011 17:00 -3,7 C 82 % 1027,8 hPa 0,0 l/m 0,2 km/h N -6,3 C -3,7 C 2,0 km/h
01.02.2011 18:00 -3,7 C 82 % 1027,8 hPa 0,0 l/m 0,1 km/h N -6,3 C -3,7 C 2,0 km/h
01.02.2011 19:00 -3,5 C 82 % 1027,9 hPa 0,0 l/m 0,2 km/h N -6,2 C -3,5 C 2,8 km/h
01.02.2011 20:00 -3,4 C 82 % 1027,9 hPa 0,0 l/m 0,2 km/h NW -6,1 C -3,4 C 3,2 km/h
01.02.2011 21:00 -3,4 C 81 % 1027,9 hPa 0,0 l/m 1,2 km/h SW -6,2 C -3,4 C 5,2 km/h
01.02.2011 22:00 -3,5 C 81 % 1027,7 hPa 0,0 l/m 1,8 km/h SW -6,3 C -3,5 C 5,6 km/h
01.02.2011 23:00 -3,6 C 81 % 1027,8 hPa 0,0 l/m 1,5 km/h SW -6,3 C -3,6 C 6,4 km/h
02.02.2011 00:00 -3,6 C 81 % 1027,9 hPa 0,0 l/m 0,7 km/h N -6,4 C -3,6 C 4,4 km/h
02.02.2011 01:00 -3,7 C 81 % 1028,3 hPa 0,0 l/m 0,8 km/h NW -6,5 C -3,7 C 4,4 km/h
02.02.2011 02:00 -3,8 C 81 % 1028,2 hPa 0,0 l/m 0,4 km/h W-SW -6,6 C -3,8 C 3,2 km/h
02.02.2011 03:00 -3,8 C 82 % 1027,9 hPa 0,0 l/m 0,5 km/h W-NW -6,5 C -3,8 C 3,6 km/h
02.02.2011 04:00 -4,4 C 81 % 1027,6 hPa 0,0 l/m 0,0 km/h N -7,1 C -4,4 C 1,6 km/h
02.02.2011 05:00 -5,9 C 82 % 1028,0 hPa 0,0 l/m 0,1 km/h N -8,5 C -5,9 C 2,8 km/h
02.02.2011 06:00 -6,7 C 83 % 1028,3 hPa 0,0 l/m 0,1 km/h N -9,1 C -6,7 C 2,0 km/h
02.02.2011 07:00 -6,8 C 87 % 1028,6 hPa 0,0 l/m 0,1 km/h N -8,6 C -6,8 C 2,8 km/h
02.02.2011 08:00 -6,0 C 85 % 1029,1 hPa 0,0 l/m 0,0 km/h N -8,1 C -6,0 C 0,8 km/h
02.02.2011 09:00 -3,9 C 84 % 1029,3 hPa 0,0 l/m 2,0 km/h NW -6,3 C -3,9 C 8,9 km/h
02.02.2011 10:00 -2,3 C 74 % 1029,8 hPa 0,0 l/m 7,7 km/h NW -6,3 C -3,8 C 22,1 km/h
02.02.2011 11:00 -1,6 C 69 % 1029,9 hPa 0,0 l/m 8,7 km/h N-NW -6,6 C -4,0 C 23,3 km/h
02.02.2011 12:00 -1,7 C 68 % 1029,9 hPa 0,0 l/m 15,2 km/h NW -6,8 C -9,1 C 28,6 km/h
02.02.2011 13:00 -1,7 C 69 % 1029,8 hPa 0,0 l/m 12,1 km/h W-NW -6,6 C -7,0 C 29,0 km/h
02.02.2011 14:00 -1,6 C 69 % 1029,6 hPa 0,0 l/m 10,7 km/h NW -6,5 C -5,7 C 24,9 km/h
02.02.2011 15:00 -1,1 C 70 % 1029,4 hPa 0,0 l/m 7,8 km/h NW -5,9 C -2,5 C 23,0 km/h
02.02.2011 16:00 -1,2 C 71 % 1029,4 hPa 0,0 l/m 7,2 km/h W -5,8 C -2,0 C 29,0 km/h
02.02.2011 17:00 -1,4 C 73 % 1029,8 hPa 0,0 l/m 4,9 km/h N-NO -5,6 C -2,0 C 15,6 km/h
02.02.2011 18:00 -1,4 C 75 % 1030,1 hPa 0,0 l/m 4,2 km/h W-SW -5,4 C -1,4 C 12,9 km/h
02.02.2011 19:00 -0,9 C 76 % 1030,1 hPa 0,0 l/m 5,7 km/h NO -4,7 C -1,2 C 20,1 km/h
02.02.2011 20:00 -1,2 C 76 % 1030,3 hPa 0,0 l/m 2,0 km/h O-NO -5,0 C -1,2 C 8,4 km/h
02.02.2011 21:00 -2,2 C 77 % 1030,3 hPa 0,0 l/m 2,8 km/h NO -5,7 C -2,2 C 7,2 km/h
02.02.2011 22:00 -2,9 C 78 % 1030,0 hPa 0,0 l/m 2,2 km/h O -6,2 C -2,9 C 5,6 km/h
02.02.2011 23:00 -2,7 C 80 % 1030,0 hPa 0,0 l/m 1,3 km/h W -5,7 C -2,7 C 8,4 km/h
03.02.2011 00:00 -3,5 C 80 % 1029,9 hPa 0,0 l/m 0,0 km/h N -6,5 C -3,5 C 2,0 km/h
03.02.2011 01:00 -4,5 C 81 % 1030,0 hPa 0,0 l/m 0,1 km/h N -7,2 C -4,5 C 2,8 km/h
03.02.2011 02:00 -5,2 C 83 % 1030,1 hPa 0,0 l/m 0,2 km/h N -7,6 C -5,2 C 3,2 km/h
03.02.2011 03:00 -5,8 C 84 % 1029,8 hPa 0,0 l/m 0,0 km/h N -8,1 C -5,8 C 0,4 km/h
03.02.2011 04:00 -6,6 C 84 % 1029,5 hPa 0,0 l/m 0,0 km/h N -8,9 C -6,6 C 0,0 km/h
03.02.2011 05:00 -7,4 C 86 % 1029,1 hPa 0,0 l/m 0,0 km/h N -9,3 C -7,4 C 0,0 km/h
03.02.2011 06:00 -8,1 C 85 % 1029,1 hPa 0,0 l/m 0,0 km/h N -10,2 C -8,1 C 0,0 km/h
03.02.2011 07:00 -8,1 C 85 % 1029,0 hPa 0,0 l/m 0,0 km/h N -10,1 C -8,1 C 0,0 km/h
03.02.2011 08:00 -7,2 C 86 % 1029,2 hPa 0,0 l/m 0,1 km/h N -9,2 C -7,2 C 1,6 km/h
03.02.2011 09:00 -4,3 C 85 % 1029,1 hPa 0,0 l/m 0,3 km/h S-SO -6,4 C -4,3 C 1,2 km/h
03.02.2011 10:00 -2,9 C 85 % 1029,0 hPa 0,0 l/m 1,4 km/h O-SO -5,1 C -2,9 C 4,4 km/h
03.02.2011 11:00 -0,8 C 80 % 1028,6 hPa 0,0 l/m 1,3 km/h O -3,8 C -0,8 C 7,2 km/h
03.02.2011 12:00 1,2 C 73 % 1027,8 hPa 0,0 l/m 1,9 km/h S-SO -3,1 C 1,2 C 8,4 km/h
03.02.2011 13:00 1,9 C 70 % 1027,4 hPa 0,0 l/m 1,5 km/h S-SO -3,0 C 1,9 C 7,2 km/h
03.02.2011 14:00 2,0 C 70 % 1027,3 hPa 0,0 l/m 1,0 km/h S-SO -2,8 C 2,0 C 6,4 km/h
03.02.2011 15:00 2,1 C 71 % 1027,0 hPa 0,0 l/m 0,8 km/h S -2,6 C 2,1 C 5,6 km/h
03.02.2011 16:00 2,0 C 72 % 1026,9 hPa 0,0 l/m 0,3 km/h N -2,6 C 2,0 C 3,6 km/h
03.02.2011 17:00 1,1 C 75 % 1027,1 hPa 0,0 l/m 0,2 km/h N -2,9 C 1,1 C 2,8 km/h
03.02.2011 18:00 0,6 C 77 % 1027,4 hPa 0,0 l/m 0,2 km/h N -3,1 C 0,6 C 3,2 km/h
03.02.2011 19:00 1,5 C 74 % 1027,7 hPa 0,0 l/m 2,7 km/h NW -2,6 C 1,5 C 11,3 km/h
03.02.2011 20:00 4,1 C 64 % 1027,5 hPa 0,0 l/m 6,4 km/h W-NW -2,1 C 3,5 C 20,5 km/h
03.02.2011 21:00 3,1 C 78 % 1027,9 hPa 1,3 l/m 8,4 km/h NW -0,4 C 0,9 C 25,8 km/h
03.02.2011 22:00 2,3 C 83 % 1028,1 hPa 1,3 l/m 8,5 km/h W-NW -0,3 C 0,3 C 28,2 km/h
03.02.2011 23:00 2,3 C 85 % 1028,8 hPa 0,5 l/m 10,8 km/h W-NW -0,1 C -1,4 C 27,8 km/h
04.02.2011 00:00 2,4 C 85 % 1029,1 hPa 0,0 l/m 6,5 km/h NW 0,1 C 1,9 C 17,3 km/h
04.02.2011 01:00 2,3 C 83 % 1028,7 hPa 0,0 l/m 3,1 km/h N-NW -0,3 C 2,3 C 8,4 km/h
04.02.2011 02:00 2,3 C 82 % 1029,0 hPa 0,0 l/m 4,9 km/h NW -0,5 C 2,3 C 12,5 km/h
04.02.2011 03:00 2,6 C 81 % 1028,7 hPa 0,0 l/m 5,0 km/h NW -0,4 C 2,5 C 18,1 km/h
04.02.2011 04:00 2,7 C 80 % 1028,5 hPa 0,0 l/m 5,8 km/h W-SW -0,5 C 2,0 C 19,7 km/h
04.02.2011 05:00 1,8 C 80 % 1029,0 hPa 0,0 l/m 0,5 km/h N -1,3 C 1,8 C 2,4 km/h
04.02.2011 06:00 0,7 C 82 % 1028,8 hPa 0,0 l/m 0,4 km/h N -1,9 C 0,7 C 3,2 km/h
04.02.2011 07:00 -0,2 C 84 % 1028,9 hPa 0,0 l/m 0,2 km/h N -2,5 C -0,2 C 2,0 km/h
04.02.2011 08:00 0,3 C 85 % 1029,5 hPa 0,0 l/m 0,1 km/h N -1,9 C 0,3 C 3,2 km/h
04.02.2011 09:00 2,3 C 84 % 1029,3 hPa 0,0 l/m 1,5 km/h O -0,1 C 2,3 C 5,9 km/h
04.02.2011 10:00 3,2 C 81 % 1029,2 hPa 0,0 l/m 1,5 km/h O-SO 0,2 C 3,2 C 9,3 km/h
04.02.2011 11:00 4,0 C 79 % 1029,0 hPa 0,0 l/m 0,9 km/h O 0,7 C 4,0 C 5,6 km/h
04.02.2011 12:00 5,0 C 76 % 1028,0 hPa 0,0 l/m 1,3 km/h S 1,0 C 5,0 C 8,1 km/h
04.02.2011 13:00 5,7 C 73 % 1027,0 hPa 0,0 l/m 1,5 km/h O 1,2 C 5,7 C 7,2 km/h
04.02.2011 14:00 6,6 C 72 % 1026,1 hPa 0,0 l/m 1,8 km/h O 1,9 C 6,6 C 8,0 km/h
04.02.2011 15:00 7,3 C 68 % 1025,8 hPa 0,0 l/m 2,3 km/h NO 1,8 C 7,3 C 11,3 km/h
04.02.2011 16:00 8,9 C 61 % 1025,4 hPa 0,0 l/m 4,6 km/h W-SW 1,7 C 8,9 C 23,3 km/h
04.02.2011 17:00 8,6 C 61 % 1025,3 hPa 0,0 l/m 6,3 km/h W 1,4 C 8,3 C 24,5 km/h
04.02.2011 18:00 8,5 C 61 % 1025,3 hPa 0,0 l/m 9,1 km/h W 1,4 C 6,6 C 26,5 km/h
04.02.2011 19:00 8,4 C 62 % 1025,3 hPa 0,0 l/m 9,6 km/h W 1,5 C 6,2 C 33,0 km/h
04.02.2011 20:00 8,3 C 63 % 1024,8 hPa 0,0 l/m 9,3 km/h W-SW 1,6 C 6,2 C 29,0 km/h
04.02.2011 21:00 8,6 C 61 % 1024,0 hPa 0,0 l/m 6,7 km/h W-SW 1,3 C 8,0 C 24,2 km/h
04.02.2011 22:00 8,9 C 60 % 1023,6 hPa 0,0 l/m 8,0 km/h W-SW 1,4 C 7,6 C 25,4 km/h
04.02.2011 23:00 8,9 C 59 % 1023,6 hPa 0,0 l/m 8,0 km/h W 1,4 C 7,8 C 25,0 km/h
05.02.2011 00:00 8,8 C 60 % 1022,5 hPa 0,0 l/m 14,6 km/h W-SW 1,4 C 3,8 C 35,0 km/h
05.02.2011 01:00 8,9 C 59 % 1022,8 hPa 0,0 l/m 14,0 km/h SW 1,4 C 4,3 C 38,2 km/h
05.02.2011 02:00 8,4 C 62 % 1022,5 hPa 0,0 l/m 16,4 km/h NW 1,6 C 2,6 C 41,8 km/h
05.02.2011 03:00 8,1 C 64 % 1022,3 hPa 0,0 l/m 14,8 km/h W-SW 1,7 C 3,0 C 34,6 km/h
05.02.2011 04:00 8,0 C 65 % 1022,1 hPa 0,0 l/m 17,5 km/h W-NW 1,7 C 1,6 C 46,3 km/h
05.02.2011 05:00 8,1 C 65 % 1021,4 hPa 0,0 l/m 16,8 km/h W-NW 1,8 C 2,0 C 39,8 km/h
05.02.2011 06:00 8,3 C 64 % 1021,8 hPa 0,0 l/m 21,9 km/h W-SW 1,8 C 0,5 C 49,1 km/h
05.02.2011 07:00 8,3 C 63 % 1021,8 hPa 0,0 l/m 22,9 km/h W 1,7 C 0,2 C 48,7 km/h
05.02.2011 08:00 8,9 C 61 % 1021,9 hPa 0,0 l/m 24,8 km/h W 1,8 C 0,4 C 53,9 km/h
05.02.2011 09:00 9,7 C 58 % 1022,3 hPa 0,0 l/m 22,4 km/h W-SW 1,9 C 2,2 C 51,5 km/h
05.02.2011 10:00 10,4 C 56 % 1022,4 hPa 0,0 l/m 21,1 km/h W 2,0 C 3,4 C 47,5 km/h
05.02.2011 11:00 11,2 C 52 % 1021,9 hPa 0,0 l/m 21,4 km/h W 1,7 C 4,5 C 46,7 km/h
05.02.2011 12:00 11,2 C 52 % 1021,4 hPa 0,0 l/m 24,5 km/h W 1,7 C 3,6 C 52,3 km/h
05.02.2011 13:00 11,7 C 50 % 1020,9 hPa 0,0 l/m 20,3 km/h W-NW 1,7 C 5,4 C 47,5 km/h
05.02.2011 14:00 11,6 C 51 % 1020,6 hPa 0,0 l/m 21,2 km/h W-NW 1,9 C 5,1 C 46,3 km/h
05.02.2011 15:00 11,2 C 52 % 1021,3 hPa 0,0 l/m 20,6 km/h W-SW 1,8 C 4,7 C 45,1 km/h
05.02.2011 16:00 11,0 C 53 % 1021,7 hPa 0,0 l/m 18,6 km/h NW 1,8 C 5,0 C 42,3 km/h
05.02.2011 17:00 10,5 C 55 % 1022,6 hPa 0,0 l/m 17,9 km/h W 1,7 C 4,7 C 42,3 km/h
05.02.2011 18:00 10,2 C 57 % 1022,7 hPa 0,0 l/m 14,4 km/h W 1,9 C 5,6 C 35,8 km/h
05.02.2011 19:00 10,4 C 54 % 1022,2 hPa 0,0 l/m 11,9 km/h W 1,6 C 7,1 C 30,6 km/h
05.02.2011 20:00 10,9 C 53 % 1022,9 hPa 0,0 l/m 12,4 km/h NW 1,6 C 7,4 C 32,6 km/h
05.02.2011 21:00 10,4 C 56 % 1023,1 hPa 0,0 l/m 12,9 km/h NW 2,1 C 6,6 C 36,2 km/h
05.02.2011 22:00 10,1 C 57 % 1023,3 hPa 0,0 l/m 13,5 km/h W-SW 2,1 C 6,0 C 29,0 km/h
05.02.2011 23:00 9,8 C 57 % 1023,8 hPa 0,0 l/m 10,6 km/h W-NW 1,8 C 7,1 C 26,5 km/h
06.02.2011 00:00 9,2 C 59 % 1024,0 hPa 0,0 l/m 9,3 km/h NW 1,5 C 7,2 C 21,3 km/h
06.02.2011 01:00 9,2 C 61 % 1023,9 hPa 0,0 l/m 11,9 km/h W-NW 2,0 C 5,7 C 29,8 km/h
06.02.2011 02:00 8,9 C 63 % 1024,4 hPa 0,0 l/m 15,3 km/h W-NW 2,3 C 3,7 C 33,0 km/h
06.02.2011 03:00 8,6 C 65 % 1024,5 hPa 0,0 l/m 15,1 km/h NW 2,4 C 3,5 C 35,8 km/h
06.02.2011 04:00 8,3 C 66 % 1024,5 hPa 0,0 l/m 12,1 km/h NW 2,2 C 4,5 C 29,8 km/h
06.02.2011 05:00 8,1 C 67 % 1024,9 hPa 0,0 l/m 12,1 km/h NW 2,2 C 4,3 C 44,3 km/h
06.02.2011 06:00 7,9 C 68 % 1025,4 hPa 0,0 l/m 9,6 km/h NW 2,3 C 5,6 C 29,8 km/h
06.02.2011 07:00 8,0 C 68 % 1025,2 hPa 0,0 l/m 9,7 km/h NW 2,5 C 5,6 C 29,0 km/h
06.02.2011 08:00 8,4 C 68 % 1025,2 hPa 0,0 l/m 8,0 km/h NW 2,8 C 7,1 C 23,3 km/h
06.02.2011 09:00 9,1 C 67 % 1025,7 hPa 0,0 l/m 11,3 km/h NW 3,2 C 5,9 C 28,2 km/h
06.02.2011 10:00 9,8 C 66 % 1026,1 hPa 0,0 l/m 16,1 km/h NW 3,6 C 4,4 C 37,8 km/h
06.02.2011 11:00 10,5 C 63 % 1025,8 hPa 0,0 l/m 16,1 km/h NW 3,8 C 5,3 C 43,4 km/h
06.02.2011 12:00 11,9 C 58 % 1024,9 hPa 0,0 l/m 14,5 km/h W 3,7 C 7,6 C 35,4 km/h
06.02.2011 13:00 13,0 C 53 % 1024,3 hPa 0,0 l/m 13,7 km/h W 3,5 C 9,3 C 31,4 km/h
06.02.2011 14:00 13,3 C 50 % 1023,8 hPa 0,0 l/m 12,9 km/h W 2,9 C 9,9 C 35,4 km/h
06.02.2011 15:00 13,1 C 48 % 1023,7 hPa 0,0 l/m 11,3 km/h W 2,2 C 10,5 C 29,0 km/h
06.02.2011 16:00 12,8 C 48 % 1023,8 hPa 0,0 l/m 8,9 km/h W 1,9 C 11,3 C 27,4 km/h
06.02.2011 17:00 12,1 C 47 % 1023,8 hPa 0,0 l/m 6,4 km/h W 1,1 C 12,1 C 20,9 km/h
06.02.2011 18:00 11,9 C 46 % 1023,8 hPa 0,0 l/m 7,2 km/h W-NW 0,7 C 11,4 C 18,5 km/h
06.02.2011 19:00 12,2 C 45 % 1023,6 hPa 0,0 l/m 8,1 km/h W 0,5 C 11,2 C 24,1 km/h
06.02.2011 20:00 12,3 C 44 % 1023,6 hPa 0,0 l/m 7,2 km/h W-SW 0,2 C 11,8 C 20,9 km/h
06.02.2011 21:00 12,4 C 44 % 1023,4 hPa 0,0 l/m 6,4 km/h W 0,5 C 12,4 C 24,1 km/h
06.02.2011 22:00 12,7 C 44 % 1023,3 hPa 0,0 l/m 5,6 km/h W 0,6 C 12,7 C 20,9 km/h
06.02.2011 23:00 11,8 C 45 % 1023,3 hPa 0,0 l/m 4,0 km/h NW 0,3 C 11,8 C 12,1 km/h
Min-Datum _ 03.02.11 06.02.11 05.02.11 - 31.01.11 - 03.02.11 02.02.11 01.02.11
_ Min-Zeit 06:30 20:00 14:15 - 04:15 - 06:30 12:00 08:15
Minimum _ -8,2 C 43 % 1020,4 hPa - 0,0 km/h - -10,3 C -10,6 C 0,0 km/h
Max-Datum _ 06.02.11 02.02.11 02.02.11 03.02.11 05.02.11 - 06.02.11 06.02.11 05.02.11
_ Max-Zeit 14:30 07:00 20:45 21:15 08:15 - 12:00 22:00 06:15
Maximum _ 13,3 C 92 % 1030,4 hPa 1,3 l/m 25,9 km/h
W
- 3,9 C 12,9 C 62,8 km/h
W-NW
Durchschnitt _ 1,8 C 73 % 1026,5 hPa #3,1 l/m 5,8 km/h NW -2,8 C 0,4 C 16,3 km/h